sensor_id;sensor_type;location;lat;lon;timestamp;temperature;humidity
12123;DHT22;6125;59.628;17.852;2023-12-22T00:00:31;1.60;99.90
12123;DHT22;6125;59.628;17.852;2023-12-22T00:03:02;1.70;99.90
12123;DHT22;6125;59.628;17.852;2023-12-22T00:05:29;1.70;99.90
12123;DHT22;6125;59.628;17.852;2023-12-22T00:07:57;1.70;99.90
12123;DHT22;6125;59.628;17.852;2023-12-22T00:10:26;1.60;99.90
12123;DHT22;6125;59.628;17.852;2023-12-22T00:12:54;1.70;99.90
12123;DHT22;6125;59.628;17.852;2023-12-22T00:15:22;1.70;99.90
12123;DHT22;6125;59.628;17.852;2023-12-22T00:17:49;1.70;99.90
12123;DHT22;6125;59.628;17.852;2023-12-22T00:20:16;1.70;99.90
12123;DHT22;6125;59.628;17.852;2023-12-22T00:22:45;1.60;99.90
12123;DHT22;6125;59.628;17.852;2023-12-22T00:25:16;1.60;99.90
12123;DHT22;6125;59.628;17.852;2023-12-22T00:27:43;1.60;99.90
12123;DHT22;6125;59.628;17.852;2023-12-22T00:30:11;1.60;99.90
12123;DHT22;6125;59.628;17.852;2023-12-22T00:32:38;1.60;99.90
12123;DHT22;6125;59.628;17.852;2023-12-22T00:35:06;1.60;99.90
12123;DHT22;6125;59.628;17.852;2023-12-22T00:37:33;1.60;99.90
12123;DHT22;6125;59.628;17.852;2023-12-22T00:40:02;1.50;99.90
12123;DHT22;6125;59.628;17.852;2023-12-22T00:42:32;1.60;99.90
12123;DHT22;6125;59.628;17.852;2023-12-22T00:44:59;1.60;99.90
12123;DHT22;6125;59.628;17.852;2023-12-22T00:47:26;1.50;99.90
12123;DHT22;6125;59.628;17.852;2023-12-22T00:49:57;1.50;99.90
12123;DHT22;6125;59.628;17.852;2023-12-22T00:52:25;1.50;99.90
12123;DHT22;6125;59.628;17.852;2023-12-22T00:54:53;1.50;99.90
12123;DHT22;6125;59.628;17.852;2023-12-22T00:57:22;1.50;99.90
12123;DHT22;6125;59.628;17.852;2023-12-22T00:59:53;1.40;99.90
12123;DHT22;6125;59.628;17.852;2023-12-22T01:02:21;1.40;99.90
12123;DHT22;6125;59.628;17.852;2023-12-22T01:04:49;1.40;99.90
12123;DHT22;6125;59.628;17.852;2023-12-22T01:07:16;1.40;99.90
12123;DHT22;6125;59.628;17.852;2023-12-22T01:09:46;1.40;99.90
12123;DHT22;6125;59.628;17.852;2023-12-22T01:12:21;1.40;99.90
12123;DHT22;6125;59.628;17.852;2023-12-22T01:14:48;1.40;99.90
12123;DHT22;6125;59.628;17.852;2023-12-22T01:17:18;1.40;99.90
12123;DHT22;6125;59.628;17.852;2023-12-22T01:19:46;1.40;99.90
12123;DHT22;6125;59.628;17.852;2023-12-22T01:22:13;1.40;99.90
12123;DHT22;6125;59.628;17.852;2023-12-22T01:24:40;1.40;99.90
12123;DHT22;6125;59.628;17.852;2023-12-22T01:27:09;1.40;99.90
12123;DHT22;6125;59.628;17.852;2023-12-22T01:29:36;1.40;99.90
12123;DHT22;6125;59.628;17.852;2023-12-22T01:32:04;1.40;99.90
12123;DHT22;6125;59.628;17.852;2023-12-22T01:34:36;1.40;99.90
12123;DHT22;6125;59.628;17.852;2023-12-22T01:37:03;1.40;99.90
12123;DHT22;6125;59.628;17.852;2023-12-22T01:39:30;1.40;99.90
12123;DHT22;6125;59.628;17.852;2023-12-22T01:41:57;1.40;99.90
12123;DHT22;6125;59.628;17.852;2023-12-22T01:44:26;1.40;99.90
12123;DHT22;6125;59.628;17.852;2023-12-22T01:46:54;1.40;99.90
12123;DHT22;6125;59.628;17.852;2023-12-22T01:49:22;1.40;99.90
12123;DHT22;6125;59.628;17.852;2023-12-22T01:51:53;1.40;99.90
12123;DHT22;6125;59.628;17.852;2023-12-22T01:54:20;1.40;99.90
12123;DHT22;6125;59.628;17.852;2023-12-22T01:56:47;1.40;99.90
12123;DHT22;6125;59.628;17.852;2023-12-22T01:59:15;1.40;99.90
12123;DHT22;6125;59.628;17.852;2023-12-22T02:01:43;1.30;99.90
12123;DHT22;6125;59.628;17.852;2023-12-22T02:04:12;1.30;99.90
12123;DHT22;6125;59.628;17.852;2023-12-22T02:06:42;1.30;99.90
12123;DHT22;6125;59.628;17.852;2023-12-22T02:09:13;1.30;99.90
12123;DHT22;6125;59.628;17.852;2023-12-22T02:11:40;1.20;99.90
12123;DHT22;6125;59.628;17.852;2023-12-22T02:14:10;1.20;99.90
12123;DHT22;6125;59.628;17.852;2023-12-22T02:16:48;1.20;99.90
12123;DHT22;6125;59.628;17.852;2023-12-22T02:19:26;1.20;99.90
12123;DHT22;6125;59.628;17.852;2023-12-22T02:22:00;1.10;99.90
12123;DHT22;6125;59.628;17.852;2023-12-22T02:24:28;1.10;99.90
12123;DHT22;6125;59.628;17.852;2023-12-22T02:26:59;1.10;99.90
12123;DHT22;6125;59.628;17.852;2023-12-22T02:29:33;1.10;99.90
12123;DHT22;6125;59.628;17.852;2023-12-22T02:32:05;1.10;99.90
12123;DHT22;6125;59.628;17.852;2023-12-22T02:34:35;1.10;99.90
12123;DHT22;6125;59.628;17.852;2023-12-22T02:37:06;1.00;99.90
12123;DHT22;6125;59.628;17.852;2023-12-22T02:39:36;1.00;99.90
12123;DHT22;6125;59.628;17.852;2023-12-22T02:42:04;1.00;99.90
12123;DHT22;6125;59.628;17.852;2023-12-22T02:44:38;1.00;99.90
12123;DHT22;6125;59.628;17.852;2023-12-22T02:47:05;1.00;99.90
12123;DHT22;6125;59.628;17.852;2023-12-22T02:49:32;1.00;99.90
12123;DHT22;6125;59.628;17.852;2023-12-22T02:52:00;1.00;99.90
12123;DHT22;6125;59.628;17.852;2023-12-22T02:54:27;0.90;99.90
12123;DHT22;6125;59.628;17.852;2023-12-22T02:56:58;0.90;99.90
12123;DHT22;6125;59.628;17.852;2023-12-22T02:59:25;0.90;99.90
12123;DHT22;6125;59.628;17.852;2023-12-22T03:01:54;1.00;99.90
12123;DHT22;6125;59.628;17.852;2023-12-22T03:04:21;1.00;99.90
12123;DHT22;6125;59.628;17.852;2023-12-22T03:06:50;1.00;99.90
12123;DHT22;6125;59.628;17.852;2023-12-22T03:09:18;1.00;99.90
12123;DHT22;6125;59.628;17.852;2023-12-22T03:11:45;1.00;99.90
12123;DHT22;6125;59.628;17.852;2023-12-22T03:14:14;1.00;99.90
12123;DHT22;6125;59.628;17.852;2023-12-22T03:16:41;1.00;99.90
12123;DHT22;6125;59.628;17.852;2023-12-22T03:19:08;1.00;99.90
12123;DHT22;6125;59.628;17.852;2023-12-22T03:21:35;1.00;99.90
12123;DHT22;6125;59.628;17.852;2023-12-22T03:24:03;0.90;99.90
12123;DHT22;6125;59.628;17.852;2023-12-22T03:26:30;1.00;99.90
12123;DHT22;6125;59.628;17.852;2023-12-22T03:28:57;0.90;99.90
12123;DHT22;6125;59.628;17.852;2023-12-22T03:31:27;1.00;99.90
12123;DHT22;6125;59.628;17.852;2023-12-22T03:33:54;1.00;99.90
12123;DHT22;6125;59.628;17.852;2023-12-22T03:36:22;1.00;99.90
12123;DHT22;6125;59.628;17.852;2023-12-22T03:38:49;0.90;99.90
12123;DHT22;6125;59.628;17.852;2023-12-22T03:41:16;1.00;99.90
12123;DHT22;6125;59.628;17.852;2023-12-22T03:43:43;0.90;99.90
12123;DHT22;6125;59.628;17.852;2023-12-22T03:46:10;0.90;99.90
12123;DHT22;6125;59.628;17.852;2023-12-22T03:48:40;0.90;99.90
12123;DHT22;6125;59.628;17.852;2023-12-22T03:51:10;0.90;99.90
12123;DHT22;6125;59.628;17.852;2023-12-22T03:53:40;0.90;99.90
12123;DHT22;6125;59.628;17.852;2023-12-22T03:56:07;0.90;99.90
12123;DHT22;6125;59.628;17.852;2023-12-22T03:58:35;0.90;99.90
12123;DHT22;6125;59.628;17.852;2023-12-22T04:01:02;0.90;99.90
12123;DHT22;6125;59.628;17.852;2023-12-22T04:03:30;0.90;99.90
12123;DHT22;6125;59.628;17.852;2023-12-22T04:06:01;0.90;99.90
12123;DHT22;6125;59.628;17.852;2023-12-22T04:08:28;0.90;99.90
12123;DHT22;6125;59.628;17.852;2023-12-22T04:10:59;0.90;99.90
12123;DHT22;6125;59.628;17.852;2023-12-22T04:13:26;0.90;99.90
12123;DHT22;6125;59.628;17.852;2023-12-22T04:15:53;0.90;99.90
12123;DHT22;6125;59.628;17.852;2023-12-22T04:18:20;0.90;99.90
12123;DHT22;6125;59.628;17.852;2023-12-22T04:20:48;0.90;99.90
12123;DHT22;6125;59.628;17.852;2023-12-22T04:23:21;0.90;99.90
12123;DHT22;6125;59.628;17.852;2023-12-22T04:25:48;0.90;99.90
12123;DHT22;6125;59.628;17.852;2023-12-22T04:28:16;0.90;99.90
12123;DHT22;6125;59.628;17.852;2023-12-22T04:30:43;0.90;99.90
12123;DHT22;6125;59.628;17.852;2023-12-22T04:33:10;0.90;99.90
12123;DHT22;6125;59.628;17.852;2023-12-22T04:35:37;0.90;99.90
12123;DHT22;6125;59.628;17.852;2023-12-22T04:38:05;0.90;99.90
12123;DHT22;6125;59.628;17.852;2023-12-22T04:40:34;0.90;99.90
12123;DHT22;6125;59.628;17.852;2023-12-22T04:43:01;0.90;99.90
12123;DHT22;6125;59.628;17.852;2023-12-22T04:45:30;0.90;99.90
12123;DHT22;6125;59.628;17.852;2023-12-22T04:47:58;0.90;99.90
12123;DHT22;6125;59.628;17.852;2023-12-22T04:50:26;0.90;99.90
12123;DHT22;6125;59.628;17.852;2023-12-22T04:52:56;0.90;99.90
12123;DHT22;6125;59.628;17.852;2023-12-22T04:55:23;0.90;99.90
12123;DHT22;6125;59.628;17.852;2023-12-22T04:57:52;0.90;99.90
12123;DHT22;6125;59.628;17.852;2023-12-22T05:00:28;0.90;99.90
12123;DHT22;6125;59.628;17.852;2023-12-22T05:02:55;0.90;99.90
12123;DHT22;6125;59.628;17.852;2023-12-22T05:05:22;0.90;99.90
12123;DHT22;6125;59.628;17.852;2023-12-22T05:07:49;0.90;99.90
12123;DHT22;6125;59.628;17.852;2023-12-22T05:10:17;0.90;99.90
12123;DHT22;6125;59.628;17.852;2023-12-22T05:12:44;0.90;99.90
12123;DHT22;6125;59.628;17.852;2023-12-22T05:15:12;0.90;99.90
12123;DHT22;6125;59.628;17.852;2023-12-22T05:17:40;0.90;99.90
12123;DHT22;6125;59.628;17.852;2023-12-22T05:20:08;0.90;99.90
12123;DHT22;6125;59.628;17.852;2023-12-22T05:22:36;0.90;99.90
12123;DHT22;6125;59.628;17.852;2023-12-22T05:25:05;0.90;99.90
12123;DHT22;6125;59.628;17.852;2023-12-22T05:27:32;0.90;99.90
12123;DHT22;6125;59.628;17.852;2023-12-22T05:29:59;0.90;99.90
12123;DHT22;6125;59.628;17.852;2023-12-22T05:32:30;0.80;99.90
12123;DHT22;6125;59.628;17.852;2023-12-22T05:34:57;0.80;99.90
12123;DHT22;6125;59.628;17.852;2023-12-22T05:37:24;0.80;99.90
12123;DHT22;6125;59.628;17.852;2023-12-22T05:39:52;0.80;99.90
12123;DHT22;6125;59.628;17.852;2023-12-22T05:42:19;0.80;99.90
12123;DHT22;6125;59.628;17.852;2023-12-22T05:44:49;0.80;99.90
12123;DHT22;6125;59.628;17.852;2023-12-22T05:47:17;0.80;99.90
12123;DHT22;6125;59.628;17.852;2023-12-22T05:49:45;0.80;99.90
12123;DHT22;6125;59.628;17.852;2023-12-22T05:52:13;0.80;99.90
12123;DHT22;6125;59.628;17.852;2023-12-22T05:54:40;0.80;99.90
12123;DHT22;6125;59.628;17.852;2023-12-22T05:57:07;0.60;99.90
12123;DHT22;6125;59.628;17.852;2023-12-22T05:59:34;0.70;99.90
12123;DHT22;6125;59.628;17.852;2023-12-22T06:02:02;0.60;99.90
12123;DHT22;6125;59.628;17.852;2023-12-22T06:04:33;0.70;99.90
12123;DHT22;6125;59.628;17.852;2023-12-22T06:07:03;0.70;99.90
12123;DHT22;6125;59.628;17.852;2023-12-22T06:09:30;0.70;99.90
12123;DHT22;6125;59.628;17.852;2023-12-22T06:11:57;0.70;99.90
12123;DHT22;6125;59.628;17.852;2023-12-22T06:14:24;0.70;99.90
12123;DHT22;6125;59.628;17.852;2023-12-22T06:16:51;0.70;99.90
12123;DHT22;6125;59.628;17.852;2023-12-22T06:19:19;0.70;99.90
12123;DHT22;6125;59.628;17.852;2023-12-22T06:21:49;0.70;99.90
12123;DHT22;6125;59.628;17.852;2023-12-22T06:24:17;0.70;99.90
12123;DHT22;6125;59.628;17.852;2023-12-22T06:26:45;0.70;99.90
12123;DHT22;6125;59.628;17.852;2023-12-22T06:29:13;0.70;99.90
12123;DHT22;6125;59.628;17.852;2023-12-22T06:31:40;0.70;99.90
12123;DHT22;6125;59.628;17.852;2023-12-22T06:34:07;0.70;99.90
12123;DHT22;6125;59.628;17.852;2023-12-22T06:36:34;0.70;99.90
12123;DHT22;6125;59.628;17.852;2023-12-22T06:39:01;0.70;99.90
12123;DHT22;6125;59.628;17.852;2023-12-22T06:41:31;0.70;99.90
12123;DHT22;6125;59.628;17.852;2023-12-22T06:43:58;0.70;99.90
12123;DHT22;6125;59.628;17.852;2023-12-22T06:46:26;0.70;99.90
12123;DHT22;6125;59.628;17.852;2023-12-22T06:48:55;0.70;99.90
12123;DHT22;6125;59.628;17.852;2023-12-22T06:51:25;0.70;99.90
12123;DHT22;6125;59.628;17.852;2023-12-22T06:53:53;0.70;99.90
12123;DHT22;6125;59.628;17.852;2023-12-22T06:56:24;0.70;99.90
12123;DHT22;6125;59.628;17.852;2023-12-22T06:58:57;0.70;99.90
12123;DHT22;6125;59.628;17.852;2023-12-22T07:01:26;0.70;99.90
12123;DHT22;6125;59.628;17.852;2023-12-22T07:03:53;0.70;99.90
12123;DHT22;6125;59.628;17.852;2023-12-22T07:06:24;0.70;99.90
12123;DHT22;6125;59.628;17.852;2023-12-22T07:09:29;0.70;99.90
12123;DHT22;6125;59.628;17.852;2023-12-22T07:11:57;0.70;99.90
12123;DHT22;6125;59.628;17.852;2023-12-22T07:14:30;0.70;99.90
12123;DHT22;6125;59.628;17.852;2023-12-22T07:16:58;0.60;99.90
12123;DHT22;6125;59.628;17.852;2023-12-22T07:19:26;0.60;99.90
12123;DHT22;6125;59.628;17.852;2023-12-22T07:21:55;0.60;99.90
12123;DHT22;6125;59.628;17.852;2023-12-22T07:24:24;0.70;99.90
12123;DHT22;6125;59.628;17.852;2023-12-22T07:26:51;0.70;99.90
12123;DHT22;6125;59.628;17.852;2023-12-22T07:29:18;0.70;99.90
12123;DHT22;6125;59.628;17.852;2023-12-22T07:31:54;0.70;99.90
12123;DHT22;6125;59.628;17.852;2023-12-22T07:34:22;0.60;99.90
12123;DHT22;6125;59.628;17.852;2023-12-22T07:36:49;0.70;99.90
12123;DHT22;6125;59.628;17.852;2023-12-22T07:39:16;0.70;99.90
12123;DHT22;6125;59.628;17.852;2023-12-22T07:41:44;0.60;99.90
12123;DHT22;6125;59.628;17.852;2023-12-22T07:44:11;0.60;99.90
12123;DHT22;6125;59.628;17.852;2023-12-22T07:46:39;0.60;99.90
12123;DHT22;6125;59.628;17.852;2023-12-22T07:49:07;0.60;99.90
12123;DHT22;6125;59.628;17.852;2023-12-22T07:51:35;0.70;99.90
12123;DHT22;6125;59.628;17.852;2023-12-22T07:54:02;0.70;99.90
12123;DHT22;6125;59.628;17.852;2023-12-22T07:56:30;0.70;99.90
12123;DHT22;6125;59.628;17.852;2023-12-22T07:58:57;0.70;99.90
12123;DHT22;6125;59.628;17.852;2023-12-22T08:01:25;0.70;99.90
12123;DHT22;6125;59.628;17.852;2023-12-22T08:03:53;0.60;99.90
12123;DHT22;6125;59.628;17.852;2023-12-22T08:06:25;0.70;99.90
12123;DHT22;6125;59.628;17.852;2023-12-22T08:08:52;0.70;99.90
12123;DHT22;6125;59.628;17.852;2023-12-22T08:11:20;0.70;99.90
12123;DHT22;6125;59.628;17.852;2023-12-22T08:13:49;0.70;99.90
12123;DHT22;6125;59.628;17.852;2023-12-22T08:16:17;0.70;99.90
12123;DHT22;6125;59.628;17.852;2023-12-22T08:18:44;0.70;99.90
12123;DHT22;6125;59.628;17.852;2023-12-22T08:21:14;0.70;99.90
12123;DHT22;6125;59.628;17.852;2023-12-22T08:23:43;0.70;99.90
12123;DHT22;6125;59.628;17.852;2023-12-22T08:26:11;0.80;99.90
12123;DHT22;6125;59.628;17.852;2023-12-22T08:28:40;0.70;99.90
12123;DHT22;6125;59.628;17.852;2023-12-22T08:31:07;0.70;99.90
12123;DHT22;6125;59.628;17.852;2023-12-22T08:33:34;0.70;99.90
12123;DHT22;6125;59.628;17.852;2023-12-22T08:36:01;0.70;99.90
12123;DHT22;6125;59.628;17.852;2023-12-22T08:38:29;0.70;99.90
12123;DHT22;6125;59.628;17.852;2023-12-22T08:41:00;0.70;99.90
12123;DHT22;6125;59.628;17.852;2023-12-22T08:43:27;0.60;99.90
12123;DHT22;6125;59.628;17.852;2023-12-22T08:45:54;0.60;99.90
12123;DHT22;6125;59.628;17.852;2023-12-22T08:48:21;0.70;99.90
12123;DHT22;6125;59.628;17.852;2023-12-22T08:50:52;0.70;99.90
12123;DHT22;6125;59.628;17.852;2023-12-22T08:53:24;0.70;99.90
12123;DHT22;6125;59.628;17.852;2023-12-22T08:55:51;0.70;99.90
12123;DHT22;6125;59.628;17.852;2023-12-22T08:58:20;0.70;99.90
12123;DHT22;6125;59.628;17.852;2023-12-22T09:00:47;0.70;99.90
12123;DHT22;6125;59.628;17.852;2023-12-22T09:03:14;0.70;99.90
12123;DHT22;6125;59.628;17.852;2023-12-22T09:05:41;0.70;99.90
12123;DHT22;6125;59.628;17.852;2023-12-22T09:08:08;0.70;99.90
12123;DHT22;6125;59.628;17.852;2023-12-22T09:10:35;0.70;99.90
12123;DHT22;6125;59.628;17.852;2023-12-22T09:13:03;0.70;99.90
12123;DHT22;6125;59.628;17.852;2023-12-22T09:15:32;0.70;99.90
12123;DHT22;6125;59.628;17.852;2023-12-22T09:17:59;0.70;99.90
12123;DHT22;6125;59.628;17.852;2023-12-22T09:20:26;0.70;99.90
12123;DHT22;6125;59.628;17.852;2023-12-22T09:22:54;0.80;99.90
12123;DHT22;6125;59.628;17.852;2023-12-22T09:25:23;0.90;99.90
12123;DHT22;6125;59.628;17.852;2023-12-22T09:27:52;0.80;99.90
12123;DHT22;6125;59.628;17.852;2023-12-22T09:30:19;0.80;99.90
12123;DHT22;6125;59.628;17.852;2023-12-22T09:32:48;0.80;99.90
12123;DHT22;6125;59.628;17.852;2023-12-22T09:35:15;0.80;99.90
12123;DHT22;6125;59.628;17.852;2023-12-22T09:37:43;0.80;99.90
12123;DHT22;6125;59.628;17.852;2023-12-22T09:40:10;0.80;99.90
12123;DHT22;6125;59.628;17.852;2023-12-22T09:42:40;0.80;99.90
12123;DHT22;6125;59.628;17.852;2023-12-22T09:45:11;0.80;99.90
12123;DHT22;6125;59.628;17.852;2023-12-22T09:47:40;0.80;99.90
12123;DHT22;6125;59.628;17.852;2023-12-22T09:50:10;0.80;99.90
12123;DHT22;6125;59.628;17.852;2023-12-22T09:52:41;0.70;99.90
12123;DHT22;6125;59.628;17.852;2023-12-22T09:55:10;0.70;99.90
12123;DHT22;6125;59.628;17.852;2023-12-22T09:57:43;0.80;99.90
12123;DHT22;6125;59.628;17.852;2023-12-22T10:00:12;0.80;99.90
12123;DHT22;6125;59.628;17.852;2023-12-22T10:02:41;0.80;99.90
12123;DHT22;6125;59.628;17.852;2023-12-22T10:05:10;0.80;99.90
12123;DHT22;6125;59.628;17.852;2023-12-22T10:07:39;0.80;99.90
12123;DHT22;6125;59.628;17.852;2023-12-22T10:10:07;0.90;99.90
12123;DHT22;6125;59.628;17.852;2023-12-22T10:12:36;0.90;99.90
12123;DHT22;6125;59.628;17.852;2023-12-22T10:15:06;0.90;99.90
12123;DHT22;6125;59.628;17.852;2023-12-22T10:17:35;0.80;99.90
12123;DHT22;6125;59.628;17.852;2023-12-22T10:20:05;0.80;99.90
12123;DHT22;6125;59.628;17.852;2023-12-22T10:22:40;0.90;99.90
12123;DHT22;6125;59.628;17.852;2023-12-22T10:25:08;0.80;99.90
12123;DHT22;6125;59.628;17.852;2023-12-22T10:27:37;0.80;99.90
12123;DHT22;6125;59.628;17.852;2023-12-22T10:30:05;0.80;99.90
12123;DHT22;6125;59.628;17.852;2023-12-22T10:32:33;0.80;99.90
12123;DHT22;6125;59.628;17.852;2023-12-22T10:35:07;0.80;99.90
12123;DHT22;6125;59.628;17.852;2023-12-22T10:37:40;0.70;99.90
12123;DHT22;6125;59.628;17.852;2023-12-22T10:40:09;0.80;99.90
12123;DHT22;6125;59.628;17.852;2023-12-22T10:42:37;0.80;99.90
12123;DHT22;6125;59.628;17.852;2023-12-22T10:45:06;0.80;99.90
12123;DHT22;6125;59.628;17.852;2023-12-22T10:47:33;0.80;99.90
12123;DHT22;6125;59.628;17.852;2023-12-22T10:50:02;0.80;99.90
12123;DHT22;6125;59.628;17.852;2023-12-22T10:52:32;0.70;99.90
12123;DHT22;6125;59.628;17.852;2023-12-22T10:55:03;0.70;99.90
12123;DHT22;6125;59.628;17.852;2023-12-22T10:57:33;0.70;99.90
12123;DHT22;6125;59.628;17.852;2023-12-22T11:00:05;0.70;99.90
12123;DHT22;6125;59.628;17.852;2023-12-22T11:02:35;0.70;99.90
12123;DHT22;6125;59.628;17.852;2023-12-22T11:05:04;0.70;99.90
12123;DHT22;6125;59.628;17.852;2023-12-22T11:07:33;0.70;99.90
12123;DHT22;6125;59.628;17.852;2023-12-22T11:10:07;0.70;99.90
12123;DHT22;6125;59.628;17.852;2023-12-22T11:12:35;0.70;99.90
12123;DHT22;6125;59.628;17.852;2023-12-22T11:15:04;0.60;99.90
12123;DHT22;6125;59.628;17.852;2023-12-22T11:17:33;0.70;99.90
12123;DHT22;6125;59.628;17.852;2023-12-22T11:20:02;0.70;99.90
12123;DHT22;6125;59.628;17.852;2023-12-22T11:22:32;0.70;99.90
12123;DHT22;6125;59.628;17.852;2023-12-22T11:25:02;0.60;99.90
12123;DHT22;6125;59.628;17.852;2023-12-22T11:27:33;0.70;99.90
12123;DHT22;6125;59.628;17.852;2023-12-22T11:30:01;0.70;99.90
12123;DHT22;6125;59.628;17.852;2023-12-22T11:32:30;0.70;99.90
12123;DHT22;6125;59.628;17.852;2023-12-22T11:34:59;0.60;99.90
12123;DHT22;6125;59.628;17.852;2023-12-22T11:37:26;0.60;99.90
12123;DHT22;6125;59.628;17.852;2023-12-22T11:39:53;0.60;99.90
12123;DHT22;6125;59.628;17.852;2023-12-22T11:42:23;0.60;99.90
12123;DHT22;6125;59.628;17.852;2023-12-22T11:44:52;0.60;99.90
12123;DHT22;6125;59.628;17.852;2023-12-22T11:47:23;0.60;99.90
12123;DHT22;6125;59.628;17.852;2023-12-22T11:49:50;0.60;99.90
12123;DHT22;6125;59.628;17.852;2023-12-22T11:52:18;0.50;99.90
12123;DHT22;6125;59.628;17.852;2023-12-22T11:54:57;0.50;99.90
12123;DHT22;6125;59.628;17.852;2023-12-22T11:57:35;0.50;99.90
12123;DHT22;6125;59.628;17.852;2023-12-22T12:00:09;0.50;99.90
12123;DHT22;6125;59.628;17.852;2023-12-22T12:02:39;0.50;99.90
12123;DHT22;6125;59.628;17.852;2023-12-22T12:05:07;0.50;99.90
12123;DHT22;6125;59.628;17.852;2023-12-22T12:07:42;0.50;99.90
12123;DHT22;6125;59.628;17.852;2023-12-22T12:10:50;0.40;99.90
12123;DHT22;6125;59.628;17.852;2023-12-22T12:13:22;0.40;99.90
12123;DHT22;6125;59.628;17.852;2023-12-22T12:15:52;0.40;99.90
12123;DHT22;6125;59.628;17.852;2023-12-22T12:18:22;0.40;99.90
12123;DHT22;6125;59.628;17.852;2023-12-22T12:20:49;0.40;99.90
12123;DHT22;6125;59.628;17.852;2023-12-22T12:23:17;0.40;99.90
12123;DHT22;6125;59.628;17.852;2023-12-22T12:25:47;0.40;99.90
12123;DHT22;6125;59.628;17.852;2023-12-22T12:28:15;0.40;99.90
12123;DHT22;6125;59.628;17.852;2023-12-22T12:30:44;0.40;99.90
12123;DHT22;6125;59.628;17.852;2023-12-22T12:33:14;0.40;99.90
12123;DHT22;6125;59.628;17.852;2023-12-22T12:35:42;0.40;99.90
12123;DHT22;6125;59.628;17.852;2023-12-22T12:38:10;0.40;99.90
12123;DHT22;6125;59.628;17.852;2023-12-22T12:40:40;0.30;99.90
12123;DHT22;6125;59.628;17.852;2023-12-22T12:43:07;0.30;99.90
12123;DHT22;6125;59.628;17.852;2023-12-22T12:45:34;0.40;99.90
12123;DHT22;6125;59.628;17.852;2023-12-22T12:48:02;0.40;99.90
12123;DHT22;6125;59.628;17.852;2023-12-22T12:50:31;0.30;99.90
12123;DHT22;6125;59.628;17.852;2023-12-22T12:52:59;0.30;99.90
12123;DHT22;6125;59.628;17.852;2023-12-22T12:55:26;0.40;99.90
12123;DHT22;6125;59.628;17.852;2023-12-22T12:58:02;0.40;99.90
12123;DHT22;6125;59.628;17.852;2023-12-22T13:00:31;0.30;99.90
12123;DHT22;6125;59.628;17.852;2023-12-22T13:03:02;0.30;99.90
12123;DHT22;6125;59.628;17.852;2023-12-22T13:05:31;0.30;99.90
12123;DHT22;6125;59.628;17.852;2023-12-22T13:08:07;0.30;99.90
12123;DHT22;6125;59.628;17.852;2023-12-22T13:10:35;0.30;99.90
12123;DHT22;6125;59.628;17.852;2023-12-22T13:13:02;0.30;99.90
12123;DHT22;6125;59.628;17.852;2023-12-22T13:15:32;0.30;99.90
12123;DHT22;6125;59.628;17.852;2023-12-22T13:17:59;0.30;99.90
12123;DHT22;6125;59.628;17.852;2023-12-22T13:20:27;0.40;99.90
12123;DHT22;6125;59.628;17.852;2023-12-22T13:22:56;0.30;99.90
12123;DHT22;6125;59.628;17.852;2023-12-22T13:25:24;0.30;99.90
12123;DHT22;6125;59.628;17.852;2023-12-22T13:27:51;0.30;99.90
12123;DHT22;6125;59.628;17.852;2023-12-22T13:30:32;0.30;99.90
12123;DHT22;6125;59.628;17.852;2023-12-22T13:33:02;0.30;99.90
12123;DHT22;6125;59.628;17.852;2023-12-22T13:35:30;0.30;99.90
12123;DHT22;6125;59.628;17.852;2023-12-22T13:38:07;0.30;99.90
12123;DHT22;6125;59.628;17.852;2023-12-22T13:40:34;0.30;99.90
12123;DHT22;6125;59.628;17.852;2023-12-22T13:43:02;0.30;99.90
12123;DHT22;6125;59.628;17.852;2023-12-22T13:45:29;0.30;99.90
12123;DHT22;6125;59.628;17.852;2023-12-22T13:47:58;0.20;99.90
12123;DHT22;6125;59.628;17.852;2023-12-22T13:50:26;0.20;99.90
12123;DHT22;6125;59.628;17.852;2023-12-22T13:52:54;0.30;99.90
12123;DHT22;6125;59.628;17.852;2023-12-22T13:55:24;0.20;99.90
12123;DHT22;6125;59.628;17.852;2023-12-22T13:57:59;0.30;99.90
12123;DHT22;6125;59.628;17.852;2023-12-22T14:00:28;0.20;99.90
12123;DHT22;6125;59.628;17.852;2023-12-22T14:02:57;0.30;99.90
12123;DHT22;6125;59.628;17.852;2023-12-22T14:05:25;0.20;99.90
12123;DHT22;6125;59.628;17.852;2023-12-22T14:07:54;0.20;99.90
12123;DHT22;6125;59.628;17.852;2023-12-22T14:10:23;0.20;99.90
12123;DHT22;6125;59.628;17.852;2023-12-22T14:12:50;0.20;99.90
12123;DHT22;6125;59.628;17.852;2023-12-22T14:15:18;0.20;99.90
12123;DHT22;6125;59.628;17.852;2023-12-22T14:17:45;0.20;99.90
12123;DHT22;6125;59.628;17.852;2023-12-22T14:20:12;0.20;99.90
12123;DHT22;6125;59.628;17.852;2023-12-22T14:22:40;0.20;99.90
12123;DHT22;6125;59.628;17.852;2023-12-22T14:25:08;0.20;99.90
12123;DHT22;6125;59.628;17.852;2023-12-22T14:27:36;0.20;99.90
12123;DHT22;6125;59.628;17.852;2023-12-22T14:30:05;0.20;99.90
12123;DHT22;6125;59.628;17.852;2023-12-22T14:32:32;0.20;99.90
12123;DHT22;6125;59.628;17.852;2023-12-22T14:34:59;0.20;99.90
12123;DHT22;6125;59.628;17.852;2023-12-22T14:37:26;0.20;99.90
12123;DHT22;6125;59.628;17.852;2023-12-22T14:39:55;0.10;99.90
12123;DHT22;6125;59.628;17.852;2023-12-22T14:42:22;0.20;99.90
12123;DHT22;6125;59.628;17.852;2023-12-22T14:44:53;0.20;99.90
12123;DHT22;6125;59.628;17.852;2023-12-22T14:47:20;0.20;99.90
12123;DHT22;6125;59.628;17.852;2023-12-22T14:49:48;0.20;99.90
12123;DHT22;6125;59.628;17.852;2023-12-22T14:52:15;0.20;99.90
12123;DHT22;6125;59.628;17.852;2023-12-22T14:54:42;0.20;99.90
12123;DHT22;6125;59.628;17.852;2023-12-22T14:57:10;0.20;99.90
12123;DHT22;6125;59.628;17.852;2023-12-22T14:59:40;0.20;99.90
12123;DHT22;6125;59.628;17.852;2023-12-22T15:02:09;0.20;99.90
12123;DHT22;6125;59.628;17.852;2023-12-22T15:04:36;0.20;99.90
12123;DHT22;6125;59.628;17.852;2023-12-22T15:07:03;0.20;99.90
12123;DHT22;6125;59.628;17.852;2023-12-22T15:09:30;0.20;99.90
12123;DHT22;6125;59.628;17.852;2023-12-22T15:11:58;0.20;99.90
12123;DHT22;6125;59.628;17.852;2023-12-22T15:14:25;0.20;99.90
12123;DHT22;6125;59.628;17.852;2023-12-22T15:16:52;0.20;99.90
12123;DHT22;6125;59.628;17.852;2023-12-22T15:19:21;0.20;99.90
12123;DHT22;6125;59.628;17.852;2023-12-22T15:21:48;0.30;99.90
12123;DHT22;6125;59.628;17.852;2023-12-22T15:24:15;0.20;99.90
12123;DHT22;6125;59.628;17.852;2023-12-22T15:26:42;0.20;99.90
12123;DHT22;6125;59.628;17.852;2023-12-22T15:29:11;0.20;99.90
12123;DHT22;6125;59.628;17.852;2023-12-22T15:31:38;0.20;99.90
12123;DHT22;6125;59.628;17.852;2023-12-22T15:34:06;0.20;99.90
12123;DHT22;6125;59.628;17.852;2023-12-22T15:36:34;0.20;99.90
12123;DHT22;6125;59.628;17.852;2023-12-22T15:39:02;0.20;99.90
12123;DHT22;6125;59.628;17.852;2023-12-22T15:41:29;0.20;99.90
12123;DHT22;6125;59.628;17.852;2023-12-22T15:43:57;0.20;99.90
12123;DHT22;6125;59.628;17.852;2023-12-22T15:46:24;0.20;99.90
12123;DHT22;6125;59.628;17.852;2023-12-22T15:48:51;0.20;99.90
12123;DHT22;6125;59.628;17.852;2023-12-22T15:51:18;0.20;99.90
12123;DHT22;6125;59.628;17.852;2023-12-22T15:53:49;0.20;99.90